Kaliopi, Kentucky
Current Conditions -  °F | °C
As of 1:55 PM on Thursday 30 Oct 2014 (Local Time) from KI35 Reporting Station
Clear Clear  
Wind Chill: 55°   Ceiling: Unl
Heat Index: 55°   Visibility: 10mi
Dew Point: 34°   Wind: 5mph
Humidity: 44%   Direction: 310°NW
Pressure: 30.06"   Gusts: NA
Location:  37.1647°N, 83.4362°W
Report Text: KI35 301755Z AUTO 31004KT 10SM CLR 13/01 A3006 RMK AO1
Loading
Personal Weather Stations






























Interactive Weather Map
Tropical Storm Tracking
New forecast layout! Learn more

10-Day Weather Forecast

Advertisements
Track Severe Weather on mobile